Time;durP1;ratioP1;P1;durP2;ratioP2;P2;SDS_P1;SDS_P2;PMS_P1;PMS_P2;Temp;Humidity;BMP_temperature;BMP_pressure;BME280_temperature;BME280_humidity;BME280_pressure;Samples;Min_cycle;Max_cycle;Signal;HPM_P1;HPM_P2
2020/12/21 06:02:21;;;;;;;;;;;;;;;;;;5083286;28;20466;-59
2020/12/21 06:04:47;;;;;;;;;;;;;;;;;;5073683;28;19935;-59
2020/12/21 06:07:13;;;;;;;;;;;;;;;;;;5069954;28;19912;-59
2020/12/21 06:09:39;;;;;;;;;;;;;;;;;;5069654;28;19962;-59
2020/12/21 06:12:05;;;;;;;;;;;;;;;;;;5071144;28;19908;-59
2020/12/21 06:14:31;;;;;;;;;;;;;;;;;;5066179;28;20004;-59
2020/12/21 06:16:57;;;;;;;;;;;;;;;;;;5070239;28;19962;-59
2020/12/21 06:19:23;;;;;;;;;;;;;;;;;;5071284;28;20040;-59
2020/12/21 06:21:49;;;;;;;;;;;;;;;;;;5067248;28;20346;-59
2020/12/21 06:24:15;;;;;;;;;;;;;;;;;;5067414;28;19954;-59
2020/12/21 06:26:41;;;;;;;;;;;;;;;;;;5064091;28;19920;-59
2020/12/21 06:29:07;;;;;;;;;;;;;;;;;;5066778;28;19905;-59
2020/12/21 06:31:37;;;;;;;0.30;0.28;;;;;;;;;;5068371;28;20397;-59
2020/12/21 06:34:04;;;;;;;1.85;0.35;;;;;;;;;;5065347;28;20473;-59
2020/12/21 06:36:31;;;;;;;1.65;0.40;;;;;;;;;;5066101;28;20021;-59
2020/12/21 06:38:57;;;;;;;1.00;0.63;;;;;;;;;;5065943;28;20401;-59
2020/12/21 06:41:24;;;;;;;3.53;0.30;;;;;;;;;;5063411;28;20033;-60
2020/12/21 06:43:53;;;;;;;0.82;0.40;;;;;;;;;;5070400;28;20031;-59
2020/12/21 06:46:20;;;;;;;5.78;0.75;;;;;;;;;;5065114;28;20104;-59
2020/12/21 06:49:09;;;;;;;1.85;0.40;;;;;;;;;;5067463;28;20110;-59
2020/12/21 06:51:37;;;;;;;2.33;0.50;;;;;;;;;;5063931;28;20131;-58
2020/12/21 06:54:04;;;;;;;3.22;0.55;;;;;;;;;;5067040;28;20032;-59
2020/12/21 06:56:30;;;;;;;7.05;0.90;;;;;;;;;;5064182;28;20028;-59
2020/12/21 06:58:57;;;;;;;9.80;0.88;;;;;;;;;;5067999;28;20044;-59
2020/12/21 07:01:24;;;;;;;3.65;0.60;;;;;;;;;;5067004;28;20057;-58
2020/12/21 07:03:51;;;;;;;2.67;0.60;;;;;;;;;;5049320;28;20044;-58
2020/12/21 07:06:17;;;;;;;3.55;0.52;;;;;;;;;;5049903;28;20498;-59
2020/12/21 07:08:44;;;;;;;2.35;0.68;;;;;;;;;;5049928;28;20033;-58
2020/12/21 07:11:20;;;;;;;6.15;0.77;;;;;;;;;;5051268;28;20045;-59
2020/12/21 07:13:48;;;;;;;5.65;0.90;;;;;;;;;;5053145;28;20029;-59
2020/12/21 07:16:16;;;;;;;1.95;0.63;;;;;;;;;;5048499;28;20367;-58
2020/12/21 07:18:42;;;;;;;5.53;0.70;;;;;;;;;;5049255;28;20021;-59
2020/12/21 07:21:09;;;;;;;1.95;0.40;;;;;;;;;;5051460;28;20032;-58
2020/12/21 07:23:35;;;;;;;3.15;0.90;;;;;;;;;;5050029;28;20423;-59
2020/12/21 07:26:01;;;;;;;3.63;0.98;;;;;;;;;;5052238;28;20029;-58
2020/12/21 07:28:28;;;;;;;1.90;0.40;;;;;;;;;;5050658;28;20072;-59
2020/12/21 07:31:08;;;;;;;3.20;0.40;;;;;;;;;;5049153;28;20029;-58
2020/12/21 07:33:35;;;;;;;4.30;1.15;;;;;;;;;;5060429;28;20074;-58
2020/12/21 07:36:01;;;;;;;3.75;0.60;;;;;;;;;;5051649;28;20393;-58
2020/12/21 07:38:27;;;;;;;2.75;0.40;;;;;;;;;;5049348;28;20025;-59
2020/12/21 07:40:54;;;;;;;2.33;0.60;;;;;;;;;;5052333;28;20025;-59
2020/12/21 07:43:35;;;;;;;3.08;0.70;;;;;;;;;;5050043;28;20033;-59
2020/12/21 07:46:05;;;;;;;4.03;0.70;;;;;;;;;;5049059;28;20064;-58
2020/12/21 07:48:32;;;;;;;8.10;0.70;;;;;;;;;;5048931;28;20032;-58
2020/12/21 07:51:00;;;;;;;7.30;0.73;;;;;;;;;;5048752;28;20047;-58
2020/12/21 07:53:30;;;;;;;3.53;0.90;;;;;;;;;;5042207;28;20033;-59
2020/12/21 07:55:59;;;;;;;3.28;0.80;;;;;;;;;;5050836;28;20033;-59
2020/12/21 07:58:26;;;;;;;3.80;1.48;;;;;;;;;;5051833;28;20531;-59
2020/12/21 08:00:53;;;;;;;3.10;0.82;;;;;;;;;;5049643;28;20079;-60
2020/12/21 08:03:20;;;;;;;5.68;1.00;;;;;;;;;;5059689;28;20067;-59
2020/12/21 08:05:47;;;;;;;8.45;1.20;;;;;;;;;;5058410;28;20276;-60
2020/12/21 08:08:13;;;;;;;8.32;1.35;;;;;;;;;;5059797;28;20428;-59
2020/12/21 08:10:39;;;;;;;4.65;0.80;;;;;;;;;;5063149;28;20039;-59
2020/12/21 08:13:15;;;;;;;7.22;1.00;;;;;;;;;;5058850;28;20358;-58
2020/12/21 08:15:42;;;;;;;6.38;1.00;;;;;;;;;;5056796;28;20473;-60
2020/12/21 08:18:12;;;;;;;7.57;1.20;;;;;;;;;;5059759;28;20016;-59
2020/12/21 08:20:41;;;;;;;6.07;1.05;;;;;;;;;;5059532;28;20102;-58
2020/12/21 08:23:07;;;;;;;6.47;0.93;;;;;;;;;;5057211;28;20024;-59
2020/12/21 08:25:34;;;;;;;5.70;1.15;;;;;;;;;;5061509;28;20398;-58
2020/12/21 08:28:00;;;;;;;11.73;1.50;;;;;;;;;;5057984;28;20029;-58
2020/12/21 08:30:26;;;;;;;3.70;0.90;;;;;;;;;;5057499;28;20413;-59
2020/12/21 08:32:54;;;;;;;3.28;0.90;;;;;;;;;;5060092;28;20036;-59
2020/12/21 08:35:24;;;;;;;4.47;0.70;;;;;;;;;;5058164;28;20036;-58
2020/12/21 08:37:50;;;;;;;2.25;0.80;;;;;;;;;;5054795;28;20021;-59
2020/12/21 08:40:18;;;;;;;6.22;0.80;;;;;;;;;;5057828;28;20029;-59
2020/12/21 08:42:44;;;;;;;6.20;1.02;;;;;;;;;;5057261;28;20021;-59
2020/12/21 08:45:16;;;;;;;4.20;0.90;;;;;;;;;;5053808;28;20043;-58
2020/12/21 08:47:42;;;;;;;4.00;1.45;;;;;;;;;;5052137;28;20098;-59
2020/12/21 08:50:09;;;;;;;2.17;0.50;;;;;;;;;;5048794;28;20103;-59
2020/12/21 08:52:35;;;;;;;5.65;1.10;;;;;;;;;;5055446;28;20386;-59
2020/12/21 08:55:01;;;;;;;9.52;1.40;;;;;;;;;;5057269;28;20094;-58
2020/12/21 08:57:27;;;;;;;5.85;1.23;;;;;;;;;;5057542;28;20020;-58
2020/12/21 08:59:53;;;;;;;4.28;1.23;;;;;;;;;;5059707;28;20382;-59
2020/12/21 09:02:19;;;;;;;5.90;1.30;;;;;;;;;;5056498;28;20327;-58
2020/12/21 09:04:46;;;;;;;7.28;1.48;;;;;;;;;;5059095;28;20036;-59
2020/12/21 09:07:12;;;;;;;9.02;2.45;;;;;;;;;;5058045;28;20024;-58
2020/12/21 09:09:38;;;;;;;9.75;1.60;;;;;;;;;;5057523;28;20018;-58
2020/12/21 09:12:04;;;;;;;8.93;1.95;;;;;;;;;;5055160;28;20110;-70
2020/12/21 09:14:30;;;;;;;9.70;2.17;;;;;;;;;;5054635;28;20028;-60
2020/12/21 09:16:56;;;;;;;7.75;1.80;;;;;;;;;;5061277;28;20116;-60
2020/12/21 09:19:23;;;;;;;9.88;2.28;;;;;;;;;;5059483;28;20037;-59
2020/12/21 09:21:49;;;;;;;8.10;2.70;;;;;;;;;;5056229;28;20119;-59
2020/12/21 09:24:15;;;;;;;10.73;3.30;;;;;;;;;;5060046;28;20105;-59
2020/12/21 09:26:41;;;;;;;15.77;4.32;;;;;;;;;;5053372;28;20024;-60
2020/12/21 09:29:07;;;;;;;15.52;3.90;;;;;;;;;;5059750;28;20056;-61
2020/12/21 09:31:33;;;;;;;15.15;4.88;;;;;;;;;;5060277;28;20043;-59
2020/12/21 09:33:59;;;;;;;12.35;4.10;;;;;;;;;;5057086;28;20024;-59
2020/12/21 09:36:27;;;;;;;11.90;4.57;;;;;;;;;;5057546;28;20123;-60
2020/12/21 09:38:53;;;;;;;15.45;5.07;;;;;;;;;;5057617;28;20456;-60
2020/12/21 09:41:20;;;;;;;15.57;5.13;;;;;;;;;;5058373;28;20037;-58
2020/12/21 09:43:47;;;;;;;12.57;5.18;;;;;;;;;;5050705;28;20116;-58
2020/12/21 09:46:20;;;;;;;15.85;5.25;;;;;;;;;;5037487;28;20505;-58
2020/12/21 09:48:47;;;;;;;16.13;5.63;;;;;;;;;;5039586;28;20078;-58
2020/12/21 09:51:13;;;;;;;15.95;5.30;;;;;;;;;;5048822;28;20421;-58
2020/12/21 09:53:42;;;;;;;14.02;5.10;;;;;;;;;;5052473;28;20493;-59
2020/12/21 09:56:09;;;;;;;14.30;3.70;;;;;;;;;;5049954;28;20056;-59
2020/12/21 09:58:35;;;;;;;10.27;3.55;;;;;;;;;;5049900;28;20021;-59
2020/12/21 10:01:02;;;;;;;14.45;3.20;;;;;;;;;;5046769;28;20213;-59
2020/12/21 10:03:28;;;;;;;8.43;2.40;;;;;;;;;;5049197;28;20108;-59
2020/12/21 10:05:54;;;;;;;13.02;3.67;;;;;;;;;;5041110;28;20029;-60
2020/12/21 10:08:21;;;;;;;12.63;2.80;;;;;;;;;;5032698;28;20036;-64
2020/12/21 10:10:50;;;;;;;9.35;3.53;;;;;;;;;;5037202;28;20033;-59
2020/12/21 10:13:17;;;;;;;8.50;3.42;;;;;;;;;;5033135;28;20464;-60
2020/12/21 10:15:43;;;;;;;8.32;3.97;;;;;;;;;;5030769;28;20041;-60
2020/12/21 10:18:09;;;;;;;13.82;3.95;;;;;;;;;;5034061;28;20093;-59
2020/12/21 10:20:35;;;;;;;16.77;3.40;;;;;;;;;;5031201;28;20490;-60
2020/12/21 10:23:01;;;;;;;10.52;3.72;;;;;;;;;;5033687;28;20029;-59
2020/12/21 10:25:27;;;;;;;12.18;3.42;;;;;;;;;;5030105;28;20398;-62
2020/12/21 10:27:53;;;;;;;12.13;3.50;;;;;;;;;;5031677;28;20025;-60
2020/12/21 10:30:20;;;;;;;9.48;4.03;;;;;;;;;;5033212;28;20114;-60
2020/12/21 10:32:46;;;;;;;17.25;4.43;;;;;;;;;;5035529;28;20420;-62
2020/12/21 10:35:12;;;;;;;8.93;3.90;;;;;;;;;;5036056;28;20025;-62
2020/12/21 10:37:38;;;;;;;11.98;3.50;;;;;;;;;;5034792;28;20017;-61
2020/12/21 10:40:05;;;;;;;7.75;2.33;;;;;;;;;;5037544;28;20406;-62
2020/12/21 10:42:31;;;;;;;7.05;2.63;;;;;;;;;;5032108;28;20099;-61
2020/12/21 10:44:57;;;;;;;7.07;1.90;;;;;;;;;;5032914;28;20024;-62
2020/12/21 10:47:23;;;;;;;7.60;2.20;;;;;;;;;;5030999;28;20529;-62
2020/12/21 10:49:50;;;;;;;11.23;2.00;;;;;;;;;;5031351;28;20061;-62
2020/12/21 10:52:16;;;;;;;11.60;2.08;;;;;;;;;;5030745;28;20399;-65
2020/12/21 10:54:42;;;;;;;13.00;2.00;;;;;;;;;;5032375;28;20084;-62
2020/12/21 10:57:08;;;;;;;6.55;1.63;;;;;;;;;;5031394;28;21708;-63
2020/12/21 10:59:34;;;;;;;9.70;1.67;;;;;;;;;;5031393;28;20033;-61
2020/12/21 11:02:00;;;;;;;11.25;2.20;;;;;;;;;;5041643;28;20041;-60
2020/12/21 11:04:26;;;;;;;8.38;1.40;;;;;;;;;;5049476;28;20041;-60
2020/12/21 11:06:53;;;;;;;7.47;2.05;;;;;;;;;;5046306;28;20036;-61
2020/12/21 11:09:19;;;;;;;8.40;2.05;;;;;;;;;;5049136;28;20029;-60
2020/12/21 11:11:45;;;;;;;8.65;1.75;;;;;;;;;;5050128;28;20512;-60
2020/12/21 11:14:11;;;;;;;9.68;2.58;;;;;;;;;;5055590;28;20029;-60
2020/12/21 11:16:37;;;;;;;7.38;1.77;;;;;;;;;;5049331;28;20114;-61
2020/12/21 11:19:03;;;;;;;11.13;2.65;;;;;;;;;;5061331;28;20025;-61
2020/12/21 11:21:35;;;;;;;8.30;2.20;;;;;;;;;;5061522;28;20020;-60
2020/12/21 11:24:01;;;;;;;8.25;1.63;;;;;;;;;;5062240;28;20025;-61
2020/12/21 11:26:28;;;;;;;6.22;1.70;;;;;;;;;;5057105;28;20031;-60
2020/12/21 11:28:54;;;;;;;4.20;1.48;;;;;;;;;;5055114;28;20032;-60
2020/12/21 11:31:20;;;;;;;8.40;2.05;;;;;;;;;;5050209;28;20068;-60
2020/12/21 11:33:46;;;;;;;5.28;1.40;;;;;;;;;;5051117;28;20033;-61
2020/12/21 11:36:12;;;;;;;4.82;1.48;;;;;;;;;;5052168;28;20021;-60
2020/12/21 11:38:38;;;;;;;7.38;1.50;;;;;;;;;;5049959;28;20486;-60
2020/12/21 11:41:05;;;;;;;10.02;1.30;;;;;;;;;;5049565;28;20112;-60
2020/12/21 11:43:31;;;;;;;8.98;1.50;;;;;;;;;;5049646;28;20033;-60
2020/12/21 11:45:57;;;;;;;5.72;1.40;;;;;;;;;;5049906;28;20498;-60
2020/12/21 11:48:23;;;;;;;8.82;2.08;;;;;;;;;;5052858;28;20036;-60
2020/12/21 11:50:49;;;;;;;8.05;1.60;;;;;;;;;;5050004;28;20033;-62
2020/12/21 11:53:15;;;;;;;6.57;1.27;;;;;;;;;;5049741;28;20027;-60
2020/12/21 11:55:41;;;;;;;5.45;1.45;;;;;;;;;;5049352;28;20025;-61
2020/12/21 11:58:08;;;;;;;9.32;1.73;;;;;;;;;;5049914;28;20432;-60
2020/12/21 12:00:34;;;;;;;7.75;1.85;;;;;;;;;;5051968;28;20585;-61
2020/12/21 12:03:00;;;;;;;7.63;1.95;;;;;;;;;;5055194;28;20393;-60
2020/12/21 12:05:26;;;;;;;8.00;1.92;;;;;;;;;;5050808;28;20037;-59
2020/12/21 12:07:52;;;;;;;11.77;1.95;;;;;;;;;;5059625;28;20768;-60
2020/12/21 12:10:18;;;;;;;13.35;2.25;;;;;;;;;;5055865;28;20512;-60
2020/12/21 12:12:45;;;;;;;8.63;1.48;;;;;;;;;;5059458;28;20032;-60
2020/12/21 12:15:11;;;;;;;5.18;1.50;;;;;;;;;;5063489;28;20031;-60
2020/12/21 12:17:38;;;;;;;15.38;2.00;;;;;;;;;;5058974;28;20048;-60
2020/12/21 12:20:05;;;;;;;9.52;1.60;;;;;;;;;;5058938;28;20024;-60
2020/12/21 12:22:31;;;;;;;11.15;2.13;;;;;;;;;;5058997;28;20052;-59
2020/12/21 12:24:57;;;;;;;13.30;2.30;;;;;;;;;;5058198;28;20064;-60
2020/12/21 12:27:24;;;;;;;11.32;2.13;;;;;;;;;;5061859;28;20032;-60
2020/12/21 12:29:50;;;;;;;11.07;1.50;;;;;;;;;;5059072;28;20016;-60
2020/12/21 12:32:16;;;;;;;10.23;2.03;;;;;;;;;;5059366;28;20486;-60
2020/12/21 12:34:42;;;;;;;11.68;2.08;;;;;;;;;;5059001;28;20033;-60
2020/12/21 12:37:08;;;;;;;6.07;1.08;;;;;;;;;;5056343;28;20453;-60
2020/12/21 12:39:34;;;;;;;8.98;1.40;;;;;;;;;;5061516;28;20013;-60
2020/12/21 12:42:00;;;;;;;9.82;1.88;;;;;;;;;;5053881;28;20033;-60
2020/12/21 12:44:26;;;;;;;6.88;1.63;;;;;;;;;;5055480;28;20017;-60
2020/12/21 12:46:52;;;;;;;5.32;1.13;;;;;;;;;;5055777;28;20215;-60
2020/12/21 12:49:19;;;;;;;4.63;0.82;;;;;;;;;;5057597;28;20103;-59
2020/12/21 12:51:45;;;;;;;5.50;1.30;;;;;;;;;;5058940;28;20102;-59
2020/12/21 12:54:11;;;;;;;5.47;1.23;;;;;;;;;;5062541;28;20013;-59
2020/12/21 12:56:37;;;;;;;4.22;1.00;;;;;;;;;;5058284;28;20031;-60
2020/12/21 12:59:03;;;;;;;5.47;0.80;;;;;;;;;;5057912;28;20465;-60
2020/12/21 13:01:32;;;;;;;5.13;0.95;;;;;;;;;;5057805;28;20527;-60
2020/12/21 13:03:58;;;;;;;3.78;0.93;;;;;;;;;;5056273;28;20410;-60
2020/12/21 13:06:24;;;;;;;5.03;0.90;;;;;;;;;;5061501;28;20040;-60
2020/12/21 13:08:50;;;;;;;3.70;0.90;;;;;;;;;;5064239;28;20509;-61
2020/12/21 13:11:16;;;;;;;3.45;1.10;;;;;;;;;;5052668;28;20069;-65
2020/12/21 13:13:43;;;;;;;5.25;1.20;;;;;;;;;;5048512;28;20062;-61
2020/12/21 13:16:09;;;;;;;3.35;1.05;;;;;;;;;;5048545;28;20013;-60
2020/12/21 13:18:35;;;;;;;6.68;1.83;;;;;;;;;;5050689;28;20017;-60
2020/12/21 13:21:01;;;;;;;4.78;1.40;;;;;;;;;;5048984;28;20032;-60
2020/12/21 13:23:27;;;;;;;7.03;2.10;;;;;;;;;;5047871;28;20646;-59
2020/12/21 13:25:53;;;;;;;3.72;0.82;;;;;;;;;;5047802;28;20037;-59
2020/12/21 13:28:19;;;;;;;5.38;0.90;;;;;;;;;;5048202;28;20143;-59
2020/12/21 13:30:45;;;;;;;2.85;0.90;;;;;;;;;;5048334;28;20033;-60
2020/12/21 13:33:14;;;;;;;5.53;0.70;;;;;;;;;;5044655;28;20028;-59
2020/12/21 13:35:40;;;;;;;3.53;1.25;;;;;;;;;;5045002;28;20654;-59
2020/12/21 13:38:06;;;;;;;2.90;0.60;;;;;;;;;;5045591;28;20017;-59
2020/12/21 13:40:32;;;;;;;3.38;0.70;;;;;;;;;;5048995;28;20033;-60
2020/12/21 13:42:58;;;;;;;6.15;0.85;;;;;;;;;;5047605;28;20029;-59
2020/12/21 13:45:24;;;;;;;6.65;0.73;;;;;;;;;;5054296;28;20033;-59
2020/12/21 13:47:50;;;;;;;5.57;0.57;;;;;;;;;;5051630;28;20059;-60
2020/12/21 13:50:16;;;;;;;5.60;0.80;;;;;;;;;;5051539;28;20099;-60
2020/12/21 13:52:42;;;;;;;3.30;0.75;;;;;;;;;;5051553;28;20021;-61
2020/12/21 13:55:09;;;;;;;5.22;0.60;;;;;;;;;;5049281;28;20036;-60
2020/12/21 13:57:35;;;;;;;5.65;1.08;;;;;;;;;;5051990;28;20094;-60
2020/12/21 14:00:01;;;;;;;4.00;0.65;;;;;;;;;;5052891;28;20074;-60
2020/12/21 14:02:27;;;;;;;4.13;0.70;;;;;;;;;;5051128;28;20398;-60
2020/12/21 14:04:53;;;;;;;4.43;0.60;;;;;;;;;;5050697;28;20509;-61
2020/12/21 14:07:19;;;;;;;2.25;0.68;;;;;;;;;;5050463;28;20013;-59
2020/12/21 14:09:45;;;;;;;5.47;0.70;;;;;;;;;;5048850;28;20036;-62
2020/12/21 14:12:12;;;;;;;4.70;0.80;;;;;;;;;;5055802;28;20498;-60
2020/12/21 14:14:38;;;;;;;7.70;1.05;;;;;;;;;;5055367;28;20401;-61
2020/12/21 14:17:04;;;;;;;4.93;0.90;;;;;;;;;;5055183;28;20035;-60
2020/12/21 14:19:30;;;;;;;3.15;0.82;;;;;;;;;;5055636;28;20032;-60
2020/12/21 14:21:56;;;;;;;6.25;1.02;;;;;;;;;;5051012;28;20067;-60
2020/12/21 14:24:23;;;;;;;7.00;1.10;;;;;;;;;;5058883;28;20041;-60
2020/12/21 14:26:49;;;;;;;3.78;0.90;;;;;;;;;;5057008;28;20651;-61
2020/12/21 14:29:15;;;;;;;6.32;1.10;;;;;;;;;;5054959;28;20032;-60
2020/12/21 14:31:41;;;;;;;7.50;1.70;;;;;;;;;;5054739;28;20040;-60
2020/12/21 14:34:07;;;;;;;8.75;2.15;;;;;;;;;;5052052;28;20466;-61
2020/12/21 14:36:35;;;;;;;8.73;1.48;;;;;;;;;;5054977;28;20029;-60
2020/12/21 14:39:02;;;;;;;11.20;1.70;;;;;;;;;;5055672;28;20033;-61
2020/12/21 14:41:28;;;;;;;12.43;1.88;;;;;;;;;;5046247;28;20033;-60
2020/12/21 14:43:54;;;;;;;10.07;2.10;;;;;;;;;;5051866;28;20025;-60
2020/12/21 14:46:21;;;;;;;15.18;2.72;;;;;;;;;;5051158;28;20075;-60
2020/12/21 14:48:47;;;;;;;25.20;3.15;;;;;;;;;;5051732;28;20038;-60
2020/12/21 14:51:32;;;;;;;17.70;3.28;;;;;;;;;;5051648;28;20484;-60
2020/12/21 14:54:05;;;;;;;21.10;3.20;;;;;;;;;;5052898;28;20021;-61
2020/12/21 14:56:31;;;;;;;24.52;3.30;;;;;;;;;;5051483;28;20486;-61
2020/12/21 14:58:57;;;;;;;24.45;2.95;;;;;;;;;;5051449;28;20044;-61
2020/12/21 15:01:23;;;;;;;25.33;3.17;;;;;;;;;;5050037;28;20068;-61
2020/12/21 15:03:50;;;;;;;24.02;3.67;;;;;;;;;;5050551;28;20029;-60
2020/12/21 15:06:16;;;;;;;28.95;3.60;;;;;;;;;;5053684;28;20100;-60
2020/12/21 15:08:42;;;;;;;14.85;2.92;;;;;;;;;;5050579;28;20025;-61
2020/12/21 15:11:09;;;;;;;17.60;2.80;;;;;;;;;;5050231;28;20494;-61
2020/12/21 15:13:36;;;;;;;17.65;2.92;;;;;;;;;;5050767;28;20005;-61
2020/12/21 15:16:03;;;;;;;20.25;2.78;;;;;;;;;;5051937;28;20028;-60
2020/12/21 15:18:29;;;;;;;14.85;2.03;;;;;;;;;;5052785;28;20032;-60
2020/12/21 15:20:55;;;;;;;20.60;2.67;;;;;;;;;;5051064;28;20570;-61
2020/12/21 15:23:21;;;;;;;19.63;3.08;;;;;;;;;;5050857;28;20482;-60
2020/12/21 15:25:48;;;;;;;19.27;2.67;;;;;;;;;;5050016;28;20537;-61
2020/12/21 15:28:14;;;;;;;22.00;2.45;;;;;;;;;;5050087;28;20120;-60
2020/12/21 15:30:40;;;;;;;18.50;3.08;;;;;;;;;;5052223;28;20041;-61
2020/12/21 15:33:06;;;;;;;16.95;2.58;;;;;;;;;;5052670;28;20500;-60
2020/12/21 15:35:32;;;;;;;12.02;2.40;;;;;;;;;;5051350;28;20032;-60
2020/12/21 15:37:58;;;;;;;18.30;2.25;;;;;;;;;;5047815;28;20505;-61
2020/12/21 15:40:25;;;;;;;19.02;2.78;;;;;;;;;;5050038;28;20023;-61
2020/12/21 15:42:53;;;;;;;20.05;3.10;;;;;;;;;;5049738;28;20033;-60
2020/12/21 15:45:19;;;;;;;15.38;3.17;;;;;;;;;;5052610;28;20029;-60
2020/12/21 15:47:45;;;;;;;22.23;2.80;;;;;;;;;;5049664;28;20579;-60
2020/12/21 15:50:12;;;;;;;17.42;3.28;;;;;;;;;;5049629;28;20033;-61
2020/12/21 15:52:38;;;;;;;22.17;3.65;;;;;;;;;;5050532;28;20120;-61
2020/12/21 15:55:04;;;;;;;22.05;3.17;;;;;;;;;;5050353;28;20017;-61
2020/12/21 15:57:30;;;;;;;22.77;3.28;;;;;;;;;;5050421;28;20036;-61
2020/12/21 15:59:56;;;;;;;19.20;3.40;;;;;;;;;;5050283;28;20490;-62
2020/12/21 16:02:22;;;;;;;19.75;2.85;;;;;;;;;;5042192;28;20040;-60
2020/12/21 16:04:48;;;;;;;22.33;3.58;;;;;;;;;;5041145;28;20025;-60
2020/12/21 16:07:15;;;;;;;20.40;3.25;;;;;;;;;;5047392;28;20458;-61
2020/12/21 16:09:42;;;;;;;17.90;2.95;;;;;;;;;;5045797;28;20029;-65
2020/12/21 16:12:08;;;;;;;21.63;3.35;;;;;;;;;;5049414;28;20036;-63
2020/12/21 16:14:34;;;;;;;29.95;3.30;;;;;;;;;;5046793;28;20071;-64
2020/12/21 16:17:01;;;;;;;28.50;4.53;;;;;;;;;;5046885;28;20112;-66
2020/12/21 16:19:27;;;;;;;24.40;3.85;;;;;;;;;;5047102;28;20021;-64
2020/12/21 16:21:53;;;;;;;34.45;4.97;;;;;;;;;;5044027;28;20064;-64
2020/12/21 16:24:19;;;;;;;37.58;5.10;;;;;;;;;;5049181;28;20375;-65
2020/12/21 16:26:45;;;;;;;37.45;5.47;;;;;;;;;;5047503;28;20494;-64
2020/12/21 16:29:12;;;;;;;28.48;5.30;;;;;;;;;;5040285;28;21117;-66
2020/12/21 16:31:38;;;;;;;36.75;5.93;;;;;;;;;;5038106;28;20044;-65
2020/12/21 16:34:04;;;;;;;43.53;7.00;;;;;;;;;;5046526;28;20504;-64
2020/12/21 16:36:30;;;;;;;30.75;4.90;;;;;;;;;;5048828;28;20041;-64
2020/12/21 16:38:57;;;;;;;35.55;6.22;;;;;;;;;;5049271;28;20028;-65
2020/12/21 16:41:24;;;;;;;38.22;7.25;;;;;;;;;;5047126;28;20032;-64
2020/12/21 16:43:50;;;;;;;31.55;4.50;;;;;;;;;;5047378;28;20025;-61
2020/12/21 16:46:23;;;;;;;30.83;4.88;;;;;;;;;;5047145;28;20158;-60
2020/12/21 16:48:50;;;;;;;36.55;5.25;;;;;;;;;;5047628;28;20037;-61
2020/12/21 16:51:16;;;;;;;32.33;4.50;;;;;;;;;;5048424;28;20025;-61
2020/12/21 16:53:43;;;;;;;35.53;5.93;;;;;;;;;;5048035;28;20486;-59
2020/12/21 16:56:09;;;;;;;24.67;4.07;;;;;;;;;;5044298;28;20516;-60
2020/12/21 16:58:35;;;;;;;29.58;5.47;;;;;;;;;;5047518;28;20018;-60
2020/12/21 17:01:01;;;;;;;35.20;5.78;;;;;;;;;;5044385;28;20076;-60
2020/12/21 17:03:28;;;;;;;27.50;4.22;;;;;;;;;;5050374;28;20513;-61
2020/12/21 17:05:54;;;;;;;30.25;4.32;;;;;;;;;;5048902;28;20037;-60
2020/12/21 17:08:21;;;;;;;41.60;5.15;;;;;;;;;;5048291;28;20027;-60
2020/12/21 17:10:47;;;;;;;33.97;5.88;;;;;;;;;;5048339;28;20055;-60
2020/12/21 17:13:13;;;;;;;31.00;5.25;;;;;;;;;;5049150;28;20034;-60
2020/12/21 17:15:39;;;;;;;30.80;5.25;;;;;;;;;;5046944;28;20068;-61
2020/12/21 17:18:06;;;;;;;27.33;5.15;;;;;;;;;;5047404;28;20036;-60
2020/12/21 17:20:32;;;;;;;27.95;4.07;;;;;;;;;;5046099;28;20028;-61
2020/12/21 17:22:58;;;;;;;27.20;3.78;;;;;;;;;;5045992;28;20082;-60
2020/12/21 17:25:24;;;;;;;32.55;5.35;;;;;;;;;;5044527;28;20112;-61
2020/12/21 17:27:51;;;;;;;25.75;5.32;;;;;;;;;;5045635;28;20017;-61
2020/12/21 17:30:17;;;;;;;27.83;4.10;;;;;;;;;;5048489;28;20029;-60
2020/12/21 17:32:43;;;;;;;31.77;4.68;;;;;;;;;;5045794;28;20768;-60
2020/12/21 17:35:09;;;;;;;29.85;4.85;;;;;;;;;;5045867;28;20062;-60
2020/12/21 17:37:35;;;;;;;23.02;4.60;;;;;;;;;;5045620;28;20059;-60
2020/12/21 17:40:01;;;;;;;22.95;4.18;;;;;;;;;;5044964;28;20025;-60
2020/12/21 17:42:27;;;;;;;24.55;3.13;;;;;;;;;;5048324;28;20032;-61
2020/12/21 17:44:53;;;;;;;26.77;4.60;;;;;;;;;;5045966;28;20041;-61
2020/12/21 17:47:20;;;;;;;30.50;4.35;;;;;;;;;;5045590;28;20033;-61
2020/12/21 17:49:46;;;;;;;24.80;4.20;;;;;;;;;;5044995;28;20029;-61
2020/12/21 17:52:12;;;;;;;18.88;3.20;;;;;;;;;;5045519;28;20049;-60
2020/12/21 17:54:38;;;;;;;24.92;4.63;;;;;;;;;;5047618;28;20546;-60
2020/12/21 17:57:08;;;;;;;21.05;3.83;;;;;;;;;;5046580;28;20051;-61
2020/12/21 17:59:35;;;;;;;27.65;4.38;;;;;;;;;;5045390;28;20055;-61
2020/12/21 18:02:01;;;;;;;20.00;2.92;;;;;;;;;;5045163;28;20104;-61
2020/12/21 18:04:27;;;;;;;18.95;3.97;;;;;;;;;;5045278;28;20060;-61
2020/12/21 18:06:53;;;;;;;22.75;3.95;;;;;;;;;;5029694;28;20029;-61
2020/12/21 18:09:19;;;;;;;22.83;3.63;;;;;;;;;;5048570;28;20464;-61
2020/12/21 18:11:46;;;;;;;27.00;3.85;;;;;;;;;;5045054;28;20125;-61
2020/12/21 18:14:12;;;;;;;26.58;3.60;;;;;;;;;;5045334;28;20029;-61
2020/12/21 18:16:38;;;;;;;19.63;3.45;;;;;;;;;;5045393;28;20017;-61
2020/12/21 18:19:04;;;;;;;17.88;3.20;;;;;;;;;;5044890;28;20022;-61
2020/12/21 18:21:30;;;;;;;21.15;3.22;;;;;;;;;;5048135;28;20437;-61
2020/12/21 18:23:57;;;;;;;16.25;3.05;;;;;;;;;;5047118;28;20040;-61
2020/12/21 18:26:23;;;;;;;18.65;3.58;;;;;;;;;;5047240;28;20448;-60
2020/12/21 18:28:50;;;;;;;19.02;3.70;;;;;;;;;;5046390;28;21468;-61
2020/12/21 18:31:16;;;;;;;23.27;3.65;;;;;;;;;;5045859;28;20120;-60
2020/12/21 18:33:42;;;;;;;16.95;2.97;;;;;;;;;;5049059;28;20021;-61
2020/12/21 18:36:08;;;;;;;19.35;3.58;;;;;;;;;;5048896;28;20036;-60
2020/12/21 18:38:35;;;;;;;17.55;2.80;;;;;;;;;;5046750;28;20040;-61
2020/12/21 18:41:02;;;;;;;17.00;2.90;;;;;;;;;;5047139;28;20033;-61
2020/12/21 18:43:29;;;;;;;16.05;2.75;;;;;;;;;;5047338;28;20056;-61
2020/12/21 18:45:58;;;;;;;14.38;2.83;;;;;;;;;;5047351;28;20497;-60
2020/12/21 18:48:24;;;;;;;18.60;2.72;;;;;;;;;;5046594;28;20108;-60
2020/12/21 18:50:51;;;;;;;15.57;2.17;;;;;;;;;;5048714;28;20043;-61
2020/12/21 18:53:17;;;;;;;18.17;3.20;;;;;;;;;;5046864;28;20048;-60
2020/12/21 18:55:43;;;;;;;11.38;2.30;;;;;;;;;;5046640;28;20107;-61
2020/12/21 18:58:09;;;;;;;10.80;1.83;;;;;;;;;;5047562;28;20433;-59
2020/12/21 19:00:35;;;;;;;17.23;2.30;;;;;;;;;;5051837;28;20049;-61
2020/12/21 19:03:02;;;;;;;18.58;2.47;;;;;;;;;;5050818;28;20087;-60
2020/12/21 19:05:28;;;;;;;15.95;2.30;;;;;;;;;;5050124;28;20440;-62
2020/12/21 19:07:55;;;;;;;14.35;2.45;;;;;;;;;;5048921;28;20035;-61
2020/12/21 19:10:21;;;;;;;19.85;2.72;;;;;;;;;;5043736;28;20799;-60
2020/12/21 19:12:47;;;;;;;12.68;1.65;;;;;;;;;;5046936;28;20116;-60
2020/12/21 19:15:13;;;;;;;12.02;1.70;;;;;;;;;;5049715;28;20108;-60
2020/12/21 19:17:39;;;;;;;16.50;3.35;;;;;;;;;;5047305;28;20044;-61
2020/12/21 19:20:05;;;;;;;12.68;2.17;;;;;;;;;;5046744;28;20017;-60
2020/12/21 19:22:31;;;;;;;12.05;2.55;;;;;;;;;;5046635;28;20065;-61
2020/12/21 19:24:57;;;;;;;16.70;2.95;;;;;;;;;;5046162;28;20021;-62
2020/12/21 19:27:24;;;;;;;17.40;2.63;;;;;;;;;;5041040;28;20032;-61
2020/12/21 19:29:50;;;;;;;11.27;2.15;;;;;;;;;;5043354;28;20029;-61
2020/12/21 19:32:16;;;;;;;12.65;2.05;;;;;;;;;;5043925;28;20029;-61
2020/12/21 19:34:42;;;;;;;16.40;2.95;;;;;;;;;;5036589;28;20090;-61
2020/12/21 19:37:08;;;;;;;16.75;2.25;;;;;;;;;;5043953;28;20022;-61
2020/12/21 19:39:34;;;;;;;8.10;1.85;;;;;;;;;;5043752;28;20021;-60
2020/12/21 19:42:00;;;;;;;14.35;2.40;;;;;;;;;;5042164;28;20028;-60
2020/12/21 19:44:28;;;;;;;15.00;2.70;;;;;;;;;;5044321;28;20104;-61
2020/12/21 19:46:54;;;;;;;13.82;2.00;;;;;;;;;;5042559;28;20441;-61
2020/12/21 19:49:20;;;;;;;10.43;1.80;;;;;;;;;;5045194;28;20033;-61
2020/12/21 19:51:49;;;;;;;10.68;1.85;;;;;;;;;;5039610;28;20052;-61
2020/12/21 19:54:17;;;;;;;12.43;1.77;;;;;;;;;;5048421;28;20513;-61
2020/12/21 19:56:44;;;;;;;14.50;2.03;;;;;;;;;;5042441;28;20025;-61
2020/12/21 19:59:10;;;;;;;11.52;1.95;;;;;;;;;;5039853;28;20114;-61
2020/12/21 20:01:37;;;;;;;12.80;3.83;;;;;;;;;;5045863;28;20455;-61
2020/12/21 20:04:05;;;;;;;9.15;1.35;;;;;;;;;;5042172;28;20021;-60
2020/12/21 20:06:31;;;;;;;10.05;1.50;;;;;;;;;;5042720;28;20033;-61
2020/12/21 20:08:57;;;;;;;10.57;2.13;;;;;;;;;;5041249;28;20517;-61
2020/12/21 20:11:23;;;;;;;10.43;2.20;;;;;;;;;;5039410;28;20163;-61
2020/12/21 20:13:50;;;;;;;14.93;2.45;;;;;;;;;;5039990;28;20052;-61
2020/12/21 20:16:16;;;;;;;6.55;1.30;;;;;;;;;;5045013;28;20081;-61
2020/12/21 20:18:43;;;;;;;8.27;1.90;;;;;;;;;;5036538;28;20021;-61
2020/12/21 20:21:09;;;;;;;7.68;1.20;;;;;;;;;;5033711;28;20029;-62
2020/12/21 20:23:35;;;;;;;6.05;1.38;;;;;;;;;;5035209;28;20025;-61
2020/12/21 20:26:01;;;;;;;5.53;1.13;;;;;;;;;;5037512;28;20034;-61
2020/12/21 20:28:28;;;;;;;9.63;5.70;;;;;;;;;;5034622;28;20033;-61
2020/12/21 20:30:54;;;;;;;6.15;1.52;;;;;;;;;;5040012;28;20119;-60
2020/12/21 20:33:20;;;;;;;9.52;3.05;;;;;;;;;;5031848;28;20498;-59
2020/12/21 20:35:47;;;;;;;9.38;5.15;;;;;;;;;;5039392;28;20639;-59
2020/12/21 20:38:13;;;;;;;6.70;2.00;;;;;;;;;;5041531;28;20440;-60